Time;durP1;ratioP1;P1;durP2;ratioP2;P2;SDS_P1;SDS_P2;PMS_P1;PMS_P2;Temp;Humidity;BMP_temperature;BMP_pressure;BME280_temperature;BME280_humidity;BME280_pressure;Samples;Min_cycle;Max_cycle;Signal;HPM_P1;HPM_P2
2023/08/05 04:30:16;;;;;;;27.90;7.07;;;15.50;80.80;;;;;;5911695;23;20023;-76
2023/08/05 04:32:42;;;;;;;17.10;5.93;;;15.50;81.10;;;;;;4900025;29;20072;-77
2023/08/05 04:35:08;;;;;;;21.27;6.15;;;15.50;80.90;;;;;;4910291;29;20039;-77
2023/08/05 04:37:33;;;;;;;17.38;5.93;;;15.50;81.00;;;;;;4921040;29;20166;-77
2023/08/05 04:39:59;;;;;;;23.33;5.28;;;15.50;81.10;;;;;;4904237;29;20016;-76
2023/08/05 04:42:25;;;;;;;23.08;6.03;;;15.50;81.20;;;;;;4919823;29;20060;-77
2023/08/05 04:44:51;;;;;;;20.83;6.80;;;15.50;81.40;;;;;;4920374;29;20128;-77
2023/08/05 04:47:17;;;;;;;20.23;6.20;;;15.40;81.40;;;;;;4921000;29;20325;-77
2023/08/05 04:49:44;;;;;;;18.58;6.05;;;15.30;81.30;;;;;;4919711;29;20076;-77
2023/08/05 04:52:10;;;;;;;20.85;6.93;;;15.30;81.30;;;;;;4919693;29;20028;-77
2023/08/05 04:54:39;;;;;;;22.25;6.35;;;15.20;81.80;;;;;;4920863;29;20375;-77
2023/08/05 04:57:05;;;;;;;22.98;6.90;;;15.30;81.70;;;;;;4920464;29;20028;-77
2023/08/05 04:59:31;;;;;;;23.67;6.10;;;15.30;81.90;;;;;;4919913;29;20020;-77
2023/08/05 05:01:57;;;;;;;17.83;5.70;;;15.30;81.80;;;;;;4902313;29;20072;-77
2023/08/05 05:04:22;;;;;;;19.27;5.30;;;15.30;81.60;;;;;;4885372;29;20032;-77
2023/08/05 05:06:48;;;;;;;18.40;5.68;;;15.30;81.70;;;;;;4902319;29;20031;-77
2023/08/05 05:09:13;;;;;;;20.02;5.65;;;15.30;81.80;;;;;;4902472;29;20033;-77
2023/08/05 05:11:40;;;;;;;15.57;5.28;;;15.30;81.80;;;;;;4902368;29;20028;-77
2023/08/05 05:14:06;;;;;;;18.60;5.57;;;15.30;81.80;;;;;;4902620;29;20033;-77
2023/08/05 05:16:32;;;;;;;17.95;4.95;;;15.30;81.80;;;;;;4902365;29;20028;-77
2023/08/05 05:18:57;;;;;;;20.90;6.10;;;15.30;81.80;;;;;;4902243;29;20391;-77
2023/08/05 05:21:23;;;;;;;18.80;5.32;;;15.30;81.90;;;;;;4902487;29;20024;-77
2023/08/05 05:23:49;;;;;;;21.77;6.03;;;15.30;81.90;;;;;;4885558;29;20036;-77
2023/08/05 05:26:14;;;;;;;22.00;6.60;;;15.20;82.00;;;;;;4885334;29;20098;-76
2023/08/05 05:28:40;;;;;;;22.73;5.85;;;15.20;82.20;;;;;;4902323;29;20468;-76
2023/08/05 05:31:05;;;;;;;16.85;5.70;;;15.20;82.10;;;;;;4902129;29;20063;-76
2023/08/05 05:33:31;;;;;;;19.13;7.10;;;15.20;82.40;;;;;;4901740;29;20120;-77
2023/08/05 05:35:57;;;;;;;18.58;5.22;;;15.30;82.50;;;;;;4902226;29;20067;-77
2023/08/05 05:38:22;;;;;;;18.40;5.90;;;15.30;82.40;;;;;;4902153;29;20036;-77
2023/08/05 05:40:48;;;;;;;18.05;5.63;;;15.30;82.30;;;;;;4902124;29;20032;-76
2023/08/05 05:43:14;;;;;;;17.48;5.93;;;15.30;82.30;;;;;;4902485;29;20063;-76
2023/08/05 05:45:40;;;;;;;15.40;5.15;;;15.20;82.40;;;;;;4902131;29;20075;-76
2023/08/05 05:48:06;;;;;;;21.08;5.55;;;15.20;82.60;;;;;;4902016;29;20077;-77
2023/08/05 05:50:31;;;;;;;15.57;5.45;;;15.30;82.40;;;;;;4885074;29;20021;-77
2023/08/05 05:52:57;;;;;;;18.63;6.00;;;15.30;82.20;;;;;;4901846;29;20035;-77
2023/08/05 05:55:23;;;;;;;25.13;6.90;;;15.30;81.80;;;;;;4901929;29;20040;-77
2023/08/05 05:57:49;;;;;;;12.85;4.82;;;15.30;81.70;;;;;;4902256;29;20040;-76
2023/08/05 06:00:15;;;;;;;20.33;5.88;;;15.30;81.20;;;;;;4901853;29;20064;-76
2023/08/05 06:02:41;;;;;;;16.50;6.20;;;15.30;81.30;;;;;;4901793;29;20034;-77
2023/08/05 06:05:07;;;;;;;17.77;5.63;;;15.30;81.50;;;;;;4901821;29;20041;-77
2023/08/05 06:07:33;;;;;;;15.23;5.28;;;15.30;81.40;;;;;;4884915;29;20024;-77
2023/08/05 06:09:59;;;;;;;18.50;6.05;;;15.30;81.70;;;;;;4904871;29;20033;-77
2023/08/05 06:12:30;;;;;;;21.50;6.35;;;15.30;81.60;;;;;;4905333;29;20448;-77
2023/08/05 06:14:56;;;;;;;13.98;4.80;;;15.30;81.70;;;;;;4905163;29;20036;-77
2023/08/05 06:17:21;;;;;;;21.02;6.32;;;15.30;81.80;;;;;;4905124;29;20029;-77
2023/08/05 06:19:47;;;;;;;19.40;5.95;;;15.30;81.70;;;;;;4905137;29;20029;-77
2023/08/05 06:22:13;;;;;;;25.52;6.47;;;15.30;81.80;;;;;;4904584;29;20024;-77
2023/08/05 06:24:38;;;;;;;20.67;5.97;;;15.30;81.80;;;;;;4904438;29;20064;-76
2023/08/05 06:27:04;;;;;;;18.90;5.55;;;15.30;81.70;;;;;;4904778;29;20127;-77
2023/08/05 06:29:30;;;;;;;14.90;6.18;;;15.30;81.60;;;;;;4905089;29;20028;-77
2023/08/05 06:31:56;;;;;;;20.48;6.18;;;15.40;81.70;;;;;;4904902;29;20052;-77
2023/08/05 06:34:22;;;;;;;16.15;5.20;;;15.40;81.80;;;;;;4904690;29;20036;-77
2023/08/05 06:36:47;;;;;;;15.57;5.32;;;15.50;81.40;;;;;;4904567;29;20024;-77
2023/08/05 06:39:13;;;;;;;21.05;5.95;;;15.50;81.80;;;;;;4904866;29;20032;-77
2023/08/05 06:41:38;;;;;;;19.60;6.22;;;15.50;81.40;;;;;;4904818;29;20028;-76
2023/08/05 06:44:04;;;;;;;20.00;5.68;;;15.60;81.70;;;;;;4904660;29;20111;-76
2023/08/05 06:46:30;;;;;;;22.50;5.63;;;15.60;81.90;;;;;;4904690;29;20111;-76
2023/08/05 06:48:55;;;;;;;16.60;4.80;;;15.50;82.50;;;;;;4904537;29;20045;-76
2023/08/05 06:51:21;;;;;;;16.23;5.10;;;15.50;82.60;;;;;;4904624;29;20036;-77
2023/08/05 06:53:47;;;;;;;20.25;5.63;;;15.30;83.30;;;;;;4904583;29;20436;-77
2023/08/05 06:56:13;;;;;;;20.58;5.65;;;15.30;83.60;;;;;;4904529;29;20476;-76
2023/08/05 06:58:39;;;;;;;16.63;5.20;;;15.30;84.10;;;;;;4887625;29;20514;-76
2023/08/05 07:01:04;;;;;;;20.73;4.40;;;15.40;83.80;;;;;;4904465;29;20445;-77
2023/08/05 07:03:31;;;;;;;21.20;5.18;;;15.50;83.70;;;;;;4903972;29;20120;-77
2023/08/05 07:05:57;;;;;;;17.35;4.82;;;15.50;83.50;;;;;;4887382;29;20032;-76
2023/08/05 07:08:24;;;;;;;18.27;5.35;;;15.60;83.70;;;;;;4904210;29;20037;-77
2023/08/05 07:10:57;;;;;;;20.50;6.10;;;15.50;83.50;;;;;;4904253;29;20050;-77
2023/08/05 07:13:23;;;;;;;;;;;15.50;83.80;;;;;;4904682;29;20024;-77
2023/08/05 07:15:49;;;;;;;18.27;4.90;;;15.60;83.60;;;;;;4904043;29;20453;-77
2023/08/05 07:18:14;;;;;;;15.82;5.43;;;15.60;83.70;;;;;;4904015;29;20029;-77
2023/08/05 07:20:40;;;;;;;12.88;4.25;;;15.50;83.70;;;;;;4903666;29;20100;-76
2023/08/05 07:23:06;;;;;;;17.95;4.50;;;15.50;83.80;;;;;;4903968;29;20044;-76
2023/08/05 07:25:32;;;;;;;14.63;5.07;;;15.50;83.80;;;;;;4903936;29;20383;-76
2023/08/05 07:27:57;;;;;;;16.48;5.53;;;15.60;83.90;;;;;;4903954;29;20108;-76
2023/08/05 07:30:23;;;;;;;18.42;4.70;;;15.50;84.10;;;;;;4903710;29;20084;-76
2023/08/05 07:32:48;;;;;;;15.43;4.78;;;15.40;84.10;;;;;;4903790;29;20044;-77
2023/08/05 07:35:14;;;;;;;15.60;5.13;;;15.30;84.40;;;;;;4903574;29;20029;-77
2023/08/05 07:37:42;;;;;;;14.88;4.90;;;15.40;84.50;;;;;;4903857;29;20064;-76
2023/08/05 07:40:12;;;;;;;10.27;2.85;;;15.30;84.50;;;;;;4903772;29;20407;-77
2023/08/05 07:42:39;;;;;;;16.17;4.95;;;15.30;84.60;;;;;;4903744;29;20040;-77
2023/08/05 07:45:10;;;;;;;17.30;5.32;;;15.30;84.80;;;;;;4903785;29;20025;-76
2023/08/05 07:47:41;;;;;;;19.17;4.82;;;15.50;84.70;;;;;;4903752;29;20028;-77
2023/08/05 07:50:10;;;;;;;17.00;5.10;;;15.50;84.40;;;;;;4903439;29;20103;-77
2023/08/05 07:52:39;;;;;;;13.05;4.55;;;15.50;84.70;;;;;;4903571;29;20036;-76
2023/08/05 07:55:04;;;;;;;13.90;4.10;;;15.50;84.50;;;;;;4903652;29;20059;-77
2023/08/05 07:57:31;;;;;;;12.80;3.97;;;15.60;84.50;;;;;;4903557;29;20488;-77
2023/08/05 07:59:57;;;;;;;12.98;3.85;;;15.50;84.30;;;;;;4903469;29;20025;-77
2023/08/05 08:02:24;;;;;;;11.80;3.83;;;15.70;84.40;;;;;;4901785;29;20081;-77
2023/08/05 08:04:54;;;;;;;14.60;4.25;;;15.60;84.50;;;;;;4902913;29;20017;-77
2023/08/05 08:07:20;;;;;;;12.88;4.18;;;15.70;84.40;;;;;;4903158;29;20029;-77
2023/08/05 08:09:46;;;;;;;12.93;4.70;;;15.70;84.40;;;;;;4903128;29;20059;-77
2023/08/05 08:12:11;;;;;;;12.63;3.22;;;15.80;84.50;;;;;;4886073;29;20495;-77
2023/08/05 08:14:37;;;;;;;14.10;4.07;;;15.80;84.20;;;;;;4903045;29;20115;-77
2023/08/05 08:17:03;;;;;;;13.43;4.18;;;15.80;83.80;;;;;;4903100;29;20400;-77
2023/08/05 08:19:28;;;;;;;12.45;3.70;;;15.80;84.00;;;;;;4902476;29;20032;-78
2023/08/05 08:21:54;;;;;;;11.55;3.72;;;15.90;84.10;;;;;;4902632;29;20031;-77
2023/08/05 08:24:20;;;;;;;13.13;4.00;;;15.90;83.90;;;;;;4903065;29;20549;-77
2023/08/05 08:26:45;;;;;;;14.90;3.22;;;16.00;84.00;;;;;;4902986;29;20502;-77
2023/08/05 08:29:11;;;;;;;9.55;3.13;;;16.10;83.70;;;;;;4902836;29;20032;-77
2023/08/05 08:31:36;;;;;;;13.02;3.63;;;16.10;83.80;;;;;;4901674;29;20044;-78
2023/08/05 08:34:02;;;;;;;14.40;3.78;;;16.20;83.60;;;;;;4902617;29;20099;-78
2023/08/05 08:36:28;;;;;;;11.45;3.17;;;16.20;83.30;;;;;;4902560;29;20068;-78
2023/08/05 08:38:53;;;;;;;12.05;3.72;;;16.20;83.20;;;;;;4902701;29;20115;-77
2023/08/05 08:41:19;;;;;;;13.85;3.47;;;16.30;83.40;;;;;;4902749;29;20432;-77
2023/08/05 08:43:46;;;;;;;10.15;3.30;;;16.30;83.30;;;;;;4902491;29;20044;-77
2023/08/05 08:46:13;;;;;;;17.83;4.03;;;16.30;83.40;;;;;;4885784;29;20448;-77
2023/08/05 08:48:42;;;;;;;11.98;3.28;;;16.50;83.50;;;;;;4902327;29;20545;-77
2023/08/05 08:51:09;;;;;;;12.82;4.22;;;16.50;83.20;;;;;;4902683;29;20028;-77
2023/08/05 08:53:35;;;;;;;12.10;3.63;;;16.60;83.10;;;;;;4885788;29;20416;-77
2023/08/05 08:56:01;;;;;;;14.35;4.32;;;16.70;83.00;;;;;;4902571;29;20029;-77
2023/08/05 08:58:27;;;;;;;10.23;3.90;;;16.80;83.00;;;;;;4885848;29;20052;-76
2023/08/05 09:00:53;;;;;;;7.07;2.92;;;16.80;82.80;;;;;;4902439;29;20411;-77
2023/08/05 09:03:22;;;;;;;8.48;2.92;;;16.90;82.80;;;;;;4885670;29;20051;-76
2023/08/05 09:05:53;;;;;;;11.93;4.13;;;17.00;82.20;;;;;;4885404;29;20032;-77
2023/08/05 09:08:19;;;;;;;8.82;3.20;;;17.20;82.30;;;;;;4885246;29;20024;-77
2023/08/05 09:10:45;;;;;;;10.98;2.90;;;17.30;82.20;;;;;;4902516;29;20025;-77
2023/08/05 09:13:11;;;;;;;7.82;2.25;;;17.30;82.00;;;;;;4902426;29;20080;-76
2023/08/05 09:15:37;;;;;;;8.45;3.40;;;17.20;81.80;;;;;;4902414;29;20035;-76
2023/08/05 09:18:04;;;;;;;10.30;2.90;;;17.30;82.00;;;;;;4902361;29;20029;-77
2023/08/05 09:20:36;;;;;;;9.32;2.15;;;17.50;82.10;;;;;;4902136;29;20028;-76
2023/08/05 09:23:07;;;;;;;6.78;1.88;;;17.50;81.60;;;;;;4902326;29;20021;-76
2023/08/05 09:25:38;;;;;;;6.45;2.55;;;17.70;81.20;;;;;;4902338;29;20033;-77
2023/08/05 09:28:05;;;;;;;5.65;1.90;;;17.70;81.40;;;;;;4901084;29;20546;-77
2023/08/05 09:30:32;;;;;;;5.95;2.30;;;17.90;81.20;;;;;;4902153;29;20041;-76
2023/08/05 09:32:58;;;;;;;5.72;1.75;;;17.80;81.20;;;;;;4885363;29;20592;-77
2023/08/05 09:35:25;;;;;;;5.55;1.60;;;18.00;80.80;;;;;;4902116;29;20036;-76
2023/08/05 09:37:52;;;;;;;7.22;1.60;;;18.10;80.80;;;;;;4902057;29;20021;-77
2023/08/05 09:40:36;;;;;;;2.95;1.13;;;18.10;80.20;;;;;;4885265;29;20484;-77
2023/08/05 09:43:03;;;;;;;3.95;1.17;;;18.10;80.20;;;;;;4903911;29;20024;-77
2023/08/05 09:45:30;;;;;;;3.53;1.17;;;18.10;80.80;;;;;;4905931;29;20077;-77
2023/08/05 09:48:03;;;;;;;4.47;1.40;;;18.30;80.40;;;;;;4905803;29;20029;-77
2023/08/05 09:50:36;;;;;;;2.83;1.00;;;18.30;80.20;;;;;;4905645;29;20489;-77
2023/08/05 09:53:04;;;;;;;;;;;18.20;80.20;;;;;;4906083;29;20020;-77
2023/08/05 09:55:29;;;;;;;3.60;1.10;;;18.60;79.70;;;;;;4906053;29;19907;-77
2023/08/05 09:57:56;;;;;;;2.67;0.90;;;18.80;78.90;;;;;;4905702;29;20036;-77
2023/08/05 10:00:23;;;;;;;3.53;1.00;;;19.10;78.30;;;;;;4905648;29;20589;-77
2023/08/05 10:02:50;;;;;;;3.10;1.00;;;19.00;77.40;;;;;;4905510;29;20077;-77
2023/08/05 10:05:15;;;;;;;4.00;1.27;;;19.10;77.80;;;;;;4905463;29;20048;-77
2023/08/05 10:07:42;;;;;;;5.38;1.00;;;18.90;78.30;;;;;;4905270;29;20510;-77
2023/08/05 10:10:11;;;;;;;3.45;1.15;;;18.90;78.20;;;;;;4905515;29;20028;-77
2023/08/05 10:13:01;;;;;;;4.47;1.10;;;18.90;78.60;;;;;;4905308;29;20056;-77
2023/08/05 10:15:30;;;;;;;3.40;1.17;;;19.00;78.90;;;;;;4888317;29;20028;-77
2023/08/05 10:17:57;;;;;;;2.85;1.00;;;19.00;78.80;;;;;;4904773;29;20033;-76
2023/08/05 10:20:22;;;;;;;4.32;1.05;;;19.00;78.80;;;;;;4905027;29;20025;-77
2023/08/05 10:23:03;;;;;;;3.40;1.08;;;18.90;79.00;;;;;;4888676;29;20160;-77
2023/08/05 10:25:41;;;;;;;4.20;1.05;;;18.90;79.30;;;;;;4888234;29;20063;-77
2023/08/05 10:28:08;;;;;;;2.47;1.10;;;18.80;79.60;;;;;;4903816;29;20029;-77
2023/08/05 10:30:41;;;;;;;3.08;1.05;;;18.80;79.70;;;;;;4904779;29;20072;-77
2023/08/05 10:33:07;;;;;;;4.15;1.45;;;18.80;80.10;;;;;;4904565;29;20497;-77
2023/08/05 10:35:40;;;;;;;3.17;1.20;;;18.70;80.30;;;;;;4887466;29;20076;-77
2023/08/05 10:38:22;;;;;;;5.13;1.33;;;18.70;80.90;;;;;;4904905;29;20028;-77
2023/08/05 10:40:47;;;;;;;5.75;1.20;;;18.70;81.20;;;;;;4904406;29;20037;-77
2023/08/05 10:43:47;;;;;;;2.50;0.88;;;18.80;81.10;;;;;;4904955;29;20117;-77
2023/08/05 10:46:13;;;;;;;4.57;1.42;;;18.70;81.40;;;;;;4873862;29;20407;-77
2023/08/05 10:48:44;;;;;;;3.13;0.90;;;18.50;81.90;;;;;;4904964;29;20029;-77
2023/08/05 10:51:24;;;;;;;4.00;1.48;;;18.50;82.60;;;;;;4919082;29;20111;-77
2023/08/05 10:53:56;;;;;;;4.65;1.60;;;18.70;83.10;;;;;;4904230;29;20027;-77
2023/08/05 10:56:33;;;;;;;4.25;1.25;;;18.80;82.50;;;;;;4904756;29;20036;-77
2023/08/05 10:59:03;;;;;;;4.10;1.30;;;18.90;82.00;;;;;;4904591;29;20024;-77
2023/08/05 11:01:57;;;;;;;4.40;1.30;;;19.00;81.90;;;;;;4904321;29;20112;-77
2023/08/05 11:04:32;;;;;;;3.30;0.98;;;19.00;82.40;;;;;;4887132;29;20519;-77
2023/08/05 11:07:01;;;;;;;2.92;1.15;;;19.00;82.60;;;;;;4904305;29;20064;-77
2023/08/05 11:09:27;;;;;;;3.28;0.90;;;19.20;82.20;;;;;;4904411;29;20034;-77
2023/08/05 11:11:52;;;;;;;3.60;1.38;;;19.40;81.30;;;;;;4904459;29;20032;-77
2023/08/05 11:14:19;;;;;;;7.28;1.17;;;19.80;80.60;;;;;;4903768;29;20065;-77
2023/08/05 11:16:48;;;;;;;2.60;1.67;;;19.90;80.10;;;;;;4904176;29;20092;-77
2023/08/05 11:19:15;;;;;;;2.35;1.35;;;19.90;79.80;;;;;;4904194;29;20392;-77
2023/08/05 11:21:45;;;;;;;3.15;1.20;;;20.00;79.60;;;;;;4904178;29;20024;-77
2023/08/05 11:24:20;;;;;;;3.30;0.77;;;20.50;79.10;;;;;;4903980;29;20032;-78
2023/08/05 11:26:49;;;;;;;5.60;1.25;;;20.80;78.00;;;;;;4904238;29;20053;-78
2023/08/05 11:29:14;;;;;;;3.22;1.30;;;21.40;77.50;;;;;;4887157;29;20073;-77
2023/08/05 11:31:51;;;;;;;3.75;1.40;;;21.70;76.60;;;;;;4903772;29;20072;-77
2023/08/05 11:34:21;;;;;;;1.95;0.80;;;22.10;75.90;;;;;;4902614;29;20030;-77
2023/08/05 11:36:57;;;;;;;4.72;1.40;;;22.00;74.40;;;;;;4903716;29;20395;-78
2023/08/05 11:39:26;;;;;;;3.72;1.40;;;22.00;74.00;;;;;;4903890;29;20024;-78
2023/08/05 11:41:52;;;;;;;2.60;1.20;;;22.10;74.30;;;;;;4903770;29;20054;-77
2023/08/05 11:44:18;;;;;;;3.10;1.30;;;22.30;73.30;;;;;;4903716;29;20028;-78
2023/08/05 11:46:44;;;;;;;3.17;1.55;;;22.10;72.70;;;;;;4886649;29;20125;-78
2023/08/05 11:49:14;;;;;;;3.33;1.58;;;22.10;73.20;;;;;;4903313;29;20068;-78
2023/08/05 11:51:50;;;;;;;5.07;1.38;;;22.10;73.00;;;;;;4886521;29;20061;-78
2023/08/05 11:54:31;;;;;;;4.22;1.40;;;22.00;72.90;;;;;;4903814;29;20024;-78
2023/08/05 11:56:58;;;;;;;6.00;1.80;;;22.00;72.60;;;;;;4903339;29;20404;-78
2023/08/05 11:59:42;;;;;;;6.78;2.38;;;22.20;71.70;;;;;;4903659;29;20052;-77
2023/08/05 12:02:09;;;;;;;8.27;1.90;;;22.20;70.80;;;;;;4884858;29;20025;-78
2023/08/05 12:04:44;;;;;;;9.13;2.00;;;22.30;69.50;;;;;;4899757;29;20041;-77
2023/08/05 12:07:11;;;;;;;14.85;2.50;;;22.60;68.80;;;;;;4902378;29;20107;-77
2023/08/05 12:09:37;;;;;;;10.95;2.47;;;22.60;66.50;;;;;;4903215;29;20073;-77
2023/08/05 12:12:03;;;;;;;16.88;2.58;;;22.40;64.40;;;;;;4886331;29;20048;-77
2023/08/05 12:14:28;;;;;;;14.98;3.55;;;22.50;62.20;;;;;;4903190;29;20099;-78
2023/08/05 12:16:59;;;;;;;12.70;2.22;;;22.80;63.40;;;;;;4902934;29;20127;-77
2023/08/05 12:19:26;;;;;;;10.30;2.08;;;22.90;62.00;;;;;;4898345;29;20031;-77
2023/08/05 12:21:52;;;;;;;11.35;1.98;;;23.20;62.20;;;;;;4902942;29;20112;-78
2023/08/05 12:24:18;;;;;;;10.73;2.40;;;23.30;61.50;;;;;;4903201;29;20021;-77
2023/08/05 12:26:44;;;;;;;12.30;2.20;;;23.40;60.30;;;;;;4902980;29;20037;-78
2023/08/05 12:29:09;;;;;;;18.77;2.53;;;23.60;60.70;;;;;;4902983;29;20028;-78
2023/08/05 12:31:35;;;;;;;20.83;2.85;;;23.60;60.70;;;;;;4901411;29;20062;-78
2023/08/05 12:34:01;;;;;;;15.52;2.40;;;23.50;59.80;;;;;;4893534;29;20029;-77
2023/08/05 12:36:26;;;;;;;15.02;2.55;;;23.50;60.70;;;;;;4901977;29;20064;-77
2023/08/05 12:38:53;;;;;;;14.27;2.78;;;23.40;60.70;;;;;;4902784;29;20056;-77
2023/08/05 12:41:19;;;;;;;12.52;2.55;;;23.30;60.00;;;;;;4902420;29;20052;-78
2023/08/05 12:43:44;;;;;;;14.80;2.85;;;23.10;60.30;;;;;;4902814;29;20111;-77
2023/08/05 12:46:10;;;;;;;12.77;2.80;;;22.80;61.10;;;;;;4902639;29;20033;-77
2023/08/05 12:48:35;;;;;;;13.68;2.45;;;22.50;61.70;;;;;;4902586;29;20691;-77
2023/08/05 12:51:01;;;;;;;12.77;2.72;;;22.50;62.10;;;;;;4902389;29;20503;-77
2023/08/05 12:53:27;;;;;;;19.35;2.90;;;22.50;62.00;;;;;;4902454;29;20039;-77
2023/08/05 12:55:53;;;;;;;12.07;2.42;;;22.70;62.70;;;;;;4902695;29;20488;-78
2023/08/05 12:58:19;;;;;;;14.15;3.00;;;22.80;62.60;;;;;;4901186;29;20028;-78
2023/08/05 13:00:44;;;;;;;20.08;3.15;;;22.90;60.80;;;;;;4902429;29;20114;-78
2023/08/05 13:03:10;;;;;;;16.73;2.30;;;22.80;60.20;;;;;;4902352;29;20028;-77
2023/08/05 13:05:36;;;;;;;16.33;2.80;;;22.80;60.30;;;;;;4902559;29;20103;-77
2023/08/05 13:08:01;;;;;;;15.82;2.47;;;22.90;59.30;;;;;;4902351;29;20025;-77
2023/08/05 13:10:27;;;;;;;19.92;2.83;;;23.00;59.10;;;;;;4902256;29;20505;-77
2023/08/05 13:12:53;;;;;;;14.40;2.88;;;23.20;56.90;;;;;;4902266;29;20096;-77
2023/08/05 13:15:18;;;;;;;18.60;2.45;;;23.20;58.10;;;;;;4885512;29;20033;-78
2023/08/05 13:17:44;;;;;;;14.05;2.72;;;23.50;59.20;;;;;;4886769;29;20447;-78
2023/08/05 13:20:10;;;;;;;20.10;2.83;;;23.40;58.60;;;;;;4906129;29;20441;-78
2023/08/05 13:22:35;;;;;;;14.30;3.03;;;23.50;57.40;;;;;;4906228;29;20025;-78
2023/08/05 13:25:01;;;;;;;16.35;3.38;;;23.50;55.70;;;;;;4889653;29;20036;-77
2023/08/05 13:27:27;;;;;;;18.10;2.60;;;23.70;57.20;;;;;;4906280;29;20165;-77
2023/08/05 13:29:52;;;;;;;18.98;2.72;;;23.80;57.00;;;;;;4889324;29;20040;-77
2023/08/05 13:32:18;;;;;;;16.77;2.90;;;23.80;55.70;;;;;;4905719;29;20052;-77
2023/08/05 13:34:44;;;;;;;20.13;3.13;;;23.90;55.10;;;;;;4905654;29;20043;-77
2023/08/05 13:37:09;;;;;;;11.07;2.53;;;23.80;55.80;;;;;;4888752;29;20028;-77
2023/08/05 13:39:35;;;;;;;15.40;2.28;;;23.70;54.70;;;;;;4906101;29;20032;-77
2023/08/05 13:42:01;;;;;;;17.70;2.45;;;23.70;54.90;;;;;;4906044;29;20024;-77
2023/08/05 13:44:27;;;;;;;18.27;2.90;;;23.80;55.50;;;;;;4906075;29;20107;-77
2023/08/05 13:46:53;;;;;;;20.05;3.42;;;23.70;54.20;;;;;;4905724;29;20027;-77
2023/08/05 13:49:18;;;;;;;21.02;2.97;;;23.30;54.30;;;;;;4888562;29;20036;-77
2023/08/05 13:51:44;;;;;;;15.20;2.45;;;23.50;55.70;;;;;;4905669;29;20032;-77
2023/08/05 13:54:10;;;;;;;13.27;2.38;;;23.40;56.80;;;;;;4906047;29;20051;-77
2023/08/05 13:56:37;;;;;;;21.05;2.53;;;23.40;56.70;;;;;;4905552;29;20566;-77
2023/08/05 13:59:02;;;;;;;15.65;2.00;;;23.40;56.60;;;;;;4888632;29;20116;-77
2023/08/05 14:01:28;;;;;;;19.20;2.88;;;23.40;56.10;;;;;;4905313;29;20052;-77
2023/08/05 14:03:54;;;;;;;20.70;3.03;;;23.70;55.30;;;;;;4905743;29;20025;-77
2023/08/05 14:06:19;;;;;;;16.08;3.00;;;23.70;56.30;;;;;;4905375;29;20488;-77
2023/08/05 14:08:45;;;;;;;26.67;3.60;;;23.80;56.90;;;;;;4905403;29;20036;-77
2023/08/05 14:11:11;;;;;;;18.30;2.53;;;23.80;55.60;;;;;;4905494;29;20025;-77
2023/08/05 14:13:37;;;;;;;11.70;2.47;;;23.90;56.00;;;;;;4905334;29;20036;-77
2023/08/05 14:16:03;;;;;;;23.52;3.85;;;24.20;53.30;;;;;;4905482;29;20024;-77
2023/08/05 14:18:29;;;;;;;19.65;2.47;;;24.30;54.00;;;;;;4905460;29;20495;-77
2023/08/05 14:20:54;;;;;;;23.88;3.17;;;24.30;51.90;;;;;;4905182;29;20025;-78
2023/08/05 14:23:20;;;;;;;10.90;1.88;;;24.30;52.10;;;;;;4905301;29;20111;-77
2023/08/05 14:25:46;;;;;;;16.45;2.40;;;24.20;50.70;;;;;;4888086;29;20028;-77
2023/08/05 14:28:12;;;;;;;21.85;2.63;;;24.10;51.10;;;;;;4904370;29;20028;-77
2023/08/05 14:30:38;;;;;;;24.67;3.45;;;23.90;51.50;;;;;;4904151;29;20584;-77
2023/08/05 14:33:08;;;;;;;17.00;3.00;;;23.70;53.20;;;;;;4904781;29;20385;-77
2023/08/05 14:35:34;;;;;;;17.73;3.05;;;23.70;52.70;;;;;;4904849;29;20036;-77
2023/08/05 14:38:01;;;;;;;17.02;2.70;;;23.80;52.50;;;;;;4887969;29;20033;-77
2023/08/05 14:40:36;;;;;;;18.58;3.10;;;23.90;52.00;;;;;;4887478;29;20031;-77
2023/08/05 14:43:03;;;;;;;18.05;2.63;;;23.60;52.90;;;;;;4904927;29;20088;-77
2023/08/05 14:45:29;;;;;;;21.20;2.70;;;23.40;52.30;;;;;;4904910;29;20031;-77
2023/08/05 14:47:55;;;;;;;21.52;2.60;;;23.10;53.10;;;;;;4904865;29;20028;-77
2023/08/05 14:50:21;;;;;;;18.55;2.88;;;23.00;53.30;;;;;;4900148;29;20157;-77
2023/08/05 14:52:48;;;;;;;19.83;2.63;;;23.00;53.20;;;;;;4904561;29;20036;-77
2023/08/05 14:55:14;;;;;;;15.40;2.47;;;23.10;54.30;;;;;;4919142;29;20024;-77
2023/08/05 14:57:39;;;;;;;22.45;3.05;;;23.10;54.60;;;;;;4904742;29;20076;-77
2023/08/05 15:00:06;;;;;;;14.93;2.20;;;23.10;52.60;;;;;;4904514;29;20104;-77
2023/08/05 15:02:32;;;;;;;18.42;3.10;;;23.00;51.40;;;;;;4887396;29;20028;-77
2023/08/05 15:04:58;;;;;;;19.85;2.85;;;23.20;52.40;;;;;;4904334;29;20503;-77
2023/08/05 15:07:23;;;;;;;17.38;3.25;;;23.30;51.90;;;;;;4904267;29;20112;-77
2023/08/05 15:09:49;;;;;;;12.82;1.98;;;23.50;51.70;;;;;;4904369;29;20028;-77
2023/08/05 15:12:15;;;;;;;21.17;2.30;;;23.50;52.50;;;;;;4904385;29;20043;-77
2023/08/05 15:14:41;;;;;;;16.48;2.78;;;23.60;51.40;;;;;;4904238;29;20036;-77
2023/08/05 15:17:07;;;;;;;18.05;2.78;;;23.60;52.10;;;;;;4904245;29;20060;-77
2023/08/05 15:19:33;;;;;;;18.40;2.47;;;23.40;51.40;;;;;;4904332;29;20029;-77
2023/08/05 15:21:58;;;;;;;19.33;2.72;;;23.50;51.70;;;;;;4904167;29;20551;-77
2023/08/05 15:24:24;;;;;;;17.08;2.20;;;23.50;50.00;;;;;;4904204;29;20028;-77
2023/08/05 15:26:50;;;;;;;25.20;2.88;;;23.40;51.70;;;;;;4887159;29;20467;-77
2023/08/05 15:29:17;;;;;;;23.08;2.65;;;23.30;50.80;;;;;;4904232;29;20060;-77
2023/08/05 15:31:43;;;;;;;16.05;2.13;;;23.20;51.60;;;;;;4903862;29;20107;-77
2023/08/05 15:34:09;;;;;;;13.02;2.65;;;23.10;51.20;;;;;;4903958;29;20641;-77
2023/08/05 15:36:34;;;;;;;14.02;2.05;;;23.00;51.00;;;;;;4886571;29;20040;-77
2023/08/05 15:39:00;;;;;;;20.55;2.72;;;22.90;51.70;;;;;;4903902;29;20092;-77
2023/08/05 15:41:26;;;;;;;21.40;3.40;;;22.80;52.00;;;;;;4903599;29;20040;-77
2023/08/05 15:43:54;;;;;;;14.77;2.35;;;22.80;53.10;;;;;;4887050;29;20056;-77
2023/08/05 15:46:20;;;;;;;18.45;2.30;;;23.00;52.60;;;;;;4903748;29;20043;-77
2023/08/05 15:48:46;;;;;;;15.10;2.55;;;23.00;52.70;;;;;;4903757;29;20029;-77
2023/08/05 15:51:11;;;;;;;16.52;2.95;;;23.10;52.80;;;;;;4903543;29;20056;-77
2023/08/05 15:53:37;;;;;;;20.67;2.35;;;23.30;53.50;;;;;;4903536;29;20032;-77
2023/08/05 15:56:09;;;;;;;18.52;2.67;;;23.00;51.80;;;;;;4886652;29;20033;-77
2023/08/05 15:58:35;;;;;;;17.35;3.08;;;23.20;52.60;;;;;;4903660;29;20021;-77
2023/08/05 16:01:03;;;;;;;11.05;2.13;;;23.00;51.90;;;;;;4903252;29;20025;-77
2023/08/05 16:03:28;;;;;;;15.65;2.35;;;23.10;52.90;;;;;;4903055;29;20021;-77
2023/08/05 16:06:04;;;;;;;15.55;2.08;;;22.90;52.70;;;;;;4903095;29;20032;-77
2023/08/05 16:08:30;;;;;;;12.85;1.90;;;22.80;52.40;;;;;;4903160;29;20024;-76
2023/08/05 16:11:06;;;;;;;12.00;1.90;;;22.70;52.50;;;;;;4886344;29;20076;-76
2023/08/05 16:13:32;;;;;;;9.82;1.52;;;22.50;51.80;;;;;;4903196;29;20025;-76
2023/08/05 16:16:18;;;;;;;13.98;2.13;;;22.20;51.60;;;;;;4903005;29;20047;-76
2023/08/05 16:18:45;;;;;;;16.88;1.80;;;22.10;52.40;;;;;;4903268;29;20424;-77
2023/08/05 16:21:16;;;;;;;16.02;2.35;;;22.10;52.90;;;;;;4902751;29;20072;-77
2023/08/05 16:23:43;;;;;;;12.55;2.05;;;21.90;52.80;;;;;;4885979;29;20024;-77
2023/08/05 16:26:10;;;;;;;15.68;1.80;;;21.80;53.50;;;;;;4898645;29;20041;-76
2023/08/05 16:28:35;;;;;;;9.57;1.90;;;22.00;53.20;;;;;;4902944;29;20024;-77
2023/08/05 16:31:01;;;;;;;17.05;1.90;;;21.90;53.70;;;;;;4901800;29;20052;-76
2023/08/05 16:33:27;;;;;;;13.85;2.42;;;21.90;53.50;;;;;;4902743;29;20040;-77
2023/08/05 16:35:52;;;;;;;14.10;2.35;;;21.80;54.00;;;;;;4902851;29;20028;-77
2023/08/05 16:38:18;;;;;;;10.90;2.42;;;21.80;54.00;;;;;;4902764;29;20469;-77
2023/08/05 16:40:43;;;;;;;15.50;2.30;;;21.70;53.60;;;;;;4902666;29;20063;-77
2023/08/05 16:43:09;;;;;;;14.75;2.00;;;21.50;54.70;;;;;;4902767;29;20067;-77
2023/08/05 16:45:34;;;;;;;24.25;2.65;;;21.50;55.40;;;;;;4902680;29;20040;-77
2023/08/05 16:48:01;;;;;;;22.73;2.88;;;21.50;55.30;;;;;;4902302;29;20056;-77
2023/08/05 16:50:26;;;;;;;15.10;2.47;;;21.50;55.10;;;;;;4902315;29;20025;-77
2023/08/05 16:52:52;;;;;;;10.93;1.95;;;21.50;55.40;;;;;;4901936;29;20062;-77
2023/08/05 16:55:17;;;;;;;14.20;1.75;;;21.40;53.90;;;;;;4902761;29;20028;-77
2023/08/05 16:57:43;;;;;;;16.50;1.95;;;21.40;54.60;;;;;;4902618;29;20028;-77
2023/08/05 17:00:09;;;;;;;14.35;2.25;;;21.30;55.20;;;;;;4902321;29;20017;-77
2023/08/05 17:02:35;;;;;;;15.45;2.47;;;21.30;55.00;;;;;;4885672;29;20480;-77
2023/08/05 17:05:01;;;;;;;14.65;1.70;;;21.40;55.70;;;;;;4902165;29;20400;-77
2023/08/05 17:07:26;;;;;;;12.27;1.98;;;21.30;55.60;;;;;;4885582;29;20028;-77
2023/08/05 17:09:52;;;;;;;10.20;1.80;;;21.30;54.70;;;;;;4885431;29;20059;-77